Mc Call Municipal Airport
KMYL : now visible

Airfield :











YOU CAN JOIN US ON...

 
LOGIN :

Register | Disclaimer

   EN    FR    IT 

 









Legend :    VFR   Marginal VFR   IFR   Intensive IFR   Very Intensive IFR
Visi :
Ceiling :
>= 8 km
>= 3000ft
5 to 8 km
1000 to 3000 ft
1500m to 5 km
500 to 1000 ft
800 to 1500m
200 to 500 ft
< 800m
< 200 ft
Symbols :   Thunderstorms  Fog  Heavy snow  Heavy precipitations  Wind > 20 kt







- Airport Elevation : 5024 ft


KMYL - Mc Call Municipal

CURRENT METAR :
  • 210851Z AUTO 03004KT 10SM FEW010 OVC027 06/04 A2960 RMK AO2 RAB0755E22 SLP008 P0001 60002 T00610039 58012

EXPIRED METARs :
  • 210836Z AUTO 00000KT 10SM SCT010 OVC025 06/04 A2960 RMK AO2 RAB0755E22 P0001 T00610039
  • 210820Z AUTO 04004KT 10SM -RA SCT010 BKN014 OVC029 06/04 A2961 RMK AO2 RAB0755 P0001 T00560039
  • 210751Z AUTO 06003KT 10SM OVC018 06/04 A2962 RMK AO2 RAE34 SLP011 P0000 T00610039
  • 210651Z AUTO 07004KT 10SM -RA FEW013 OVC025 06/04 A2963 RMK AO2 SLP016 P0001 T00610039 401280050
  • 210632Z AUTO 07003KT 10SM -RA BKN013 OVC024 06/04 A2963 RMK AO2 P0001 T00610044

TAF KMYL
Valid from the 21 at 09:00 until the 22 at 06:00 UTC


210904Z 2109/2206 VRB03KT P6SM VCSH SCT010 OVC025
TEMPO 2109/2111 3SM -RA BR OVC009
FM211100 27006KT 5SM -RA BR OVC015
FM220200 33008KT P6SM -SHRA OVC030
KZLC FIR / North America



MET'MAP, your aeronautical weather chart ! - Copyright ORBIFLY December 2007 - Disclaimer

ORBIFLY MET'MAP TEAM :

Programming & Development : Alexandra Zaïnal
Concept & Development : Baudouin d'Aumeries
Co-Development & Prog : Marc-Olivier Méhu
Technical & hardware support : Manuel Goepfert

Contact : metmap@orbifly.com




SOURCES & CREDITS :

   NOAA       Earth
Advisory